Time;durP1;ratioP1;P1;durP2;ratioP2;P2;SDS_P1;SDS_P2;PMS_P1;PMS_P2;Temp;Humidity;BMP_temperature;BMP_pressure;BME280_temperature;BME280_humidity;BME280_pressure;Samples;Min_cycle;Max_cycle;Signal;HPM_P1;HPM_P2
2020/12/03 00:01:20;;;;;;;33.53;20.00;;;6.70;53.80;;;;;;5058707;28;20648;-41
2020/12/03 00:03:58;;;;;;;36.07;19.57;;;6.80;53.80;;;;;;5067092;28;20614;-41
2020/12/03 00:06:35;;;;;;;34.93;19.50;;;6.80;53.80;;;;;;5065325;28;20473;-41
2020/12/03 00:09:05;;;;;;;37.87;20.50;;;6.90;53.70;;;;;;5065943;28;20499;-41
2020/12/03 00:11:33;;;;;;;27.80;18.43;;;7.00;53.70;;;;;;5069390;28;20446;-41
2020/12/03 00:13:59;;;;;;;34.00;19.90;;;7.00;53.50;;;;;;5064243;28;20446;-41
2020/12/03 00:16:29;;;;;;;32.23;20.30;;;6.90;53.20;;;;;;5067499;28;20462;-41
2020/12/03 00:18:54;;;;;;;34.80;19.90;;;6.80;53.70;;;;;;5056864;28;20685;-41
2020/12/03 00:21:32;;;;;;;31.90;19.23;;;6.80;53.80;;;;;;5061569;28;20439;-42
2020/12/03 00:23:57;;;;;;;32.40;18.63;;;6.80;53.60;;;;;;5064185;28;20192;-41
2020/12/03 00:26:26;;;;;;;33.27;18.53;;;6.80;53.60;;;;;;5063324;28;20472;-42
2020/12/03 00:28:52;;;;;;;36.20;20.33;;;6.70;53.60;;;;;;5063642;28;20590;-42
2020/12/03 00:31:17;;;;;;;38.20;19.67;;;6.80;54.00;;;;;;5066685;28;20463;-41
2020/12/03 00:33:43;;;;;;;30.47;18.83;;;6.90;54.00;;;;;;5061971;28;20636;-42
2020/12/03 00:36:08;;;;;;;34.20;20.00;;;6.90;54.00;;;;;;5063760;28;20274;-41
2020/12/03 00:38:34;;;;;;;38.77;19.20;;;7.00;54.10;;;;;;5055506;28;20193;-41
2020/12/03 00:40:59;;;;;;;33.20;20.30;;;7.00;53.90;;;;;;5056835;28;20196;-41
2020/12/03 00:43:25;;;;;;;36.67;19.90;;;7.10;53.80;;;;;;5065121;28;20203;-41
2020/12/03 00:45:50;;;;;;;31.80;18.53;;;7.10;53.80;;;;;;5064746;28;20192;-41
2020/12/03 00:48:17;;;;;;;32.80;19.17;;;7.10;54.20;;;;;;5060720;28;20184;-41
2020/12/03 00:50:43;;;;;;;31.23;19.83;;;7.10;53.50;;;;;;5057921;28;20287;-42
2020/12/03 00:53:09;;;;;;;35.63;20.30;;;7.10;53.40;;;;;;5062255;28;20475;-41
2020/12/03 00:55:34;;;;;;;36.37;20.77;;;7.00;53.30;;;;;;5052967;28;20439;-41
2020/12/03 00:58:00;;;;;;;34.00;19.40;;;7.10;53.40;;;;;;5063207;28;20195;-41
2020/12/03 01:00:26;;;;;;;34.47;19.50;;;7.00;53.40;;;;;;5056904;28;20188;-41
2020/12/03 01:02:51;;;;;;;34.07;19.40;;;7.00;53.50;;;;;;5069337;28;20203;-41
2020/12/03 01:05:18;;;;;;;34.97;20.87;;;7.00;53.70;;;;;;5065633;28;20591;-41
2020/12/03 01:07:44;;;;;;;36.37;21.93;;;6.90;53.70;;;;;;5061924;28;20234;-42
2020/12/03 01:10:21;;;;;;;34.67;20.87;;;6.90;53.70;;;;;;5056314;28;20487;-41
2020/12/03 01:12:48;;;;;;;33.07;20.80;;;6.90;53.90;;;;;;5058246;28;20303;-42
2020/12/03 01:15:15;;;;;;;33.80;20.50;;;6.90;53.90;;;;;;5063150;28;21256;-41
2020/12/03 01:17:42;;;;;;;35.27;21.40;;;6.90;54.00;;;;;;5062186;28;20449;-41
2020/12/03 01:20:10;;;;;;;34.23;20.80;;;6.90;54.00;;;;;;5059910;28;20621;-41
2020/12/03 01:22:35;;;;;;;32.70;18.23;;;7.00;54.00;;;;;;5069127;28;20457;-41
2020/12/03 01:25:02;;;;;;;32.27;18.77;;;7.00;53.80;;;;;;5057727;28;20443;-41
2020/12/03 01:27:28;;;;;;;39.60;19.87;;;7.10;53.70;;;;;;5054651;28;20267;-41
2020/12/03 01:29:53;;;;;;;32.23;19.37;;;7.10;53.70;;;;;;5063339;28;21045;-41
2020/12/03 01:32:19;;;;;;;36.70;21.37;;;7.00;53.80;;;;;;5057562;28;20195;-42
2020/12/03 01:34:44;;;;;;;33.77;20.70;;;6.90;53.60;;;;;;5059815;28;20195;-41
2020/12/03 01:37:12;;;;;;;30.77;19.40;;;6.80;54.10;;;;;;5060649;28;20213;-41
2020/12/03 01:39:38;;;;;;;33.90;19.23;;;6.50;54.40;;;;;;5061208;28;20274;-41
2020/12/03 01:42:04;;;;;;;31.13;19.97;;;6.50;55.00;;;;;;5054095;28;20474;-41
2020/12/03 01:44:47;;;;;;;33.83;19.30;;;6.50;55.20;;;;;;5065006;28;20442;-41
2020/12/03 01:47:37;;;;;;;40.10;20.03;;;6.50;55.40;;;;;;5057895;28;20200;-41
2020/12/03 01:50:07;;;;;;;32.90;19.07;;;6.70;55.10;;;;;;5055937;28;20478;-41
2020/12/03 01:52:33;;;;;;;37.63;21.70;;;6.70;54.90;;;;;;5064786;28;20805;-41
2020/12/03 01:54:59;;;;;;;32.33;18.77;;;6.80;54.80;;;;;;5059302;28;20832;-41
2020/12/03 01:57:31;;;;;;;36.20;21.00;;;6.60;54.70;;;;;;5057306;28;20474;-41
2020/12/03 02:00:17;;;;;;;33.77;19.60;;;6.50;55.20;;;;;;5070472;28;20891;-41
2020/12/03 02:02:47;;;;;;;36.40;19.50;;;6.30;55.50;;;;;;5067810;28;20437;-41
2020/12/03 02:05:16;;;;;;;33.67;20.40;;;6.30;55.70;;;;;;5059370;28;20446;-41
2020/12/03 02:07:42;;;;;;;33.00;19.97;;;6.20;56.00;;;;;;5070918;28;20481;-41
2020/12/03 02:10:09;;;;;;;34.07;19.37;;;6.20;56.30;;;;;;5059520;28;20577;-41
2020/12/03 02:12:35;;;;;;;35.10;20.10;;;6.20;56.20;;;;;;5068643;28;20897;-41
2020/12/03 02:15:02;;;;;;;35.30;21.47;;;6.10;56.30;;;;;;5069911;28;20440;-41
2020/12/03 02:17:28;;;;;;;35.87;20.00;;;5.90;56.40;;;;;;5071173;28;20457;-41
2020/12/03 02:19:58;;;;;;;38.50;20.60;;;5.70;57.20;;;;;;5071127;28;20452;-41
2020/12/03 02:22:24;;;;;;;33.77;19.73;;;5.80;57.40;;;;;;5070909;28;20196;-41
2020/12/03 02:24:50;;;;;;;34.70;20.47;;;5.70;57.30;;;;;;5068277;28;20473;-41
2020/12/03 02:27:18;;;;;;;39.20;22.63;;;5.50;57.50;;;;;;5072833;28;20470;-41
2020/12/03 02:29:44;;;;;;;39.67;21.67;;;5.40;57.90;;;;;;5064321;28;20224;-41
2020/12/03 02:32:09;;;;;;;36.57;20.67;;;5.40;58.10;;;;;;5062474;28;20798;-41
2020/12/03 02:34:35;;;;;;;37.40;21.63;;;5.40;58.10;;;;;;5065286;28;20199;-41
2020/12/03 02:37:02;;;;;;;35.93;20.30;;;5.20;58.30;;;;;;5060621;28;20192;-41
2020/12/03 02:39:30;;;;;;;37.43;21.47;;;5.00;58.90;;;;;;5071229;28;20503;-41
2020/12/03 02:41:56;;;;;;;34.23;19.77;;;5.10;58.90;;;;;;5062726;28;20470;-41
2020/12/03 02:44:22;;;;;;;32.87;19.57;;;5.00;59.10;;;;;;5071232;28;20930;-41
2020/12/03 02:46:48;;;;;;;36.33;21.17;;;5.10;59.10;;;;;;5061238;28;20434;-41
2020/12/03 02:49:14;;;;;;;37.23;20.53;;;5.20;59.00;;;;;;5067439;28;20847;-41
2020/12/03 02:51:41;;;;;;;36.43;21.07;;;5.30;58.60;;;;;;5065666;28;20222;-41
2020/12/03 02:54:08;;;;;;;33.17;20.53;;;5.20;58.90;;;;;;5063378;28;21245;-41
2020/12/03 02:56:35;;;;;;;38.30;21.10;;;5.20;58.90;;;;;;5063331;28;20456;-41
2020/12/03 02:59:00;;;;;;;41.13;21.73;;;5.20;59.00;;;;;;5061227;28;20975;-41
2020/12/03 03:01:26;;;;;;;40.10;20.33;;;5.10;59.00;;;;;;5067323;28;20534;-41
2020/12/03 03:03:51;;;;;;;36.60;19.40;;;4.90;59.40;;;;;;5071278;28;20255;-41
2020/12/03 03:06:17;;;;;;;40.17;20.00;;;4.80;59.80;;;;;;5063560;28;20714;-41
2020/12/03 03:08:43;;;;;;;43.67;22.20;;;4.60;60.40;;;;;;5062144;28;20660;-41
2020/12/03 03:11:08;;;;;;;41.77;21.10;;;4.60;61.10;;;;;;5070359;28;20196;-41
2020/12/03 03:13:34;;;;;;;36.00;20.37;;;4.60;61.30;;;;;;5060980;28;20192;-41
2020/12/03 03:15:59;;;;;;;39.03;20.23;;;4.80;61.20;;;;;;5063889;28;20567;-41
2020/12/03 03:18:25;;;;;;;39.13;20.90;;;4.80;61.00;;;;;;5068172;28;20252;-41
2020/12/03 03:20:51;;;;;;;40.37;21.50;;;4.50;61.20;;;;;;5062814;28;20329;-41
2020/12/03 03:23:17;;;;;;;37.10;19.80;;;4.50;62.50;;;;;;5067521;28;20435;-42
2020/12/03 03:25:43;;;;;;;40.73;21.77;;;4.40;62.80;;;;;;5053584;28;20203;-41
2020/12/03 03:28:10;;;;;;;39.57;21.07;;;4.50;63.10;;;;;;5065337;28;20442;-41
2020/12/03 03:30:36;;;;;;;37.47;20.53;;;4.60;63.00;;;;;;5060084;28;20486;-41
2020/12/03 03:33:02;;;;;;;37.57;20.17;;;4.70;62.10;;;;;;5061054;28;20449;-42
2020/12/03 03:35:27;;;;;;;39.50;21.17;;;4.80;61.80;;;;;;5061118;28;20450;-41
2020/12/03 03:37:53;;;;;;;41.97;22.20;;;4.80;61.60;;;;;;5069073;28;20511;-41
2020/12/03 03:40:19;;;;;;;39.50;21.47;;;5.00;61.30;;;;;;5070653;28;20204;-41
2020/12/03 03:42:44;;;;;;;40.97;21.77;;;5.10;60.50;;;;;;5067537;28;20283;-41
2020/12/03 03:45:10;;;;;;;40.37;21.03;;;5.20;60.40;;;;;;5060530;28;20196;-41
2020/12/03 03:47:37;;;;;;;35.23;19.60;;;5.20;60.20;;;;;;5060109;28;20193;-41
2020/12/03 03:50:05;;;;;;;39.13;20.47;;;5.20;60.30;;;;;;5061733;28;20569;-41
2020/12/03 03:52:31;;;;;;;37.80;20.80;;;5.10;59.90;;;;;;5056599;28;22717;-41
2020/12/03 03:54:57;;;;;;;36.70;20.07;;;5.00;60.00;;;;;;5058724;28;20525;-41
2020/12/03 03:57:23;;;;;;;34.77;19.70;;;5.10;60.00;;;;;;5067931;28;20200;-41
2020/12/03 03:59:48;;;;;;;33.23;19.23;;;5.00;60.30;;;;;;5066422;28;20495;-41
2020/12/03 04:02:17;;;;;;;35.80;19.33;;;5.20;60.40;;;;;;5061206;28;20198;-42
2020/12/03 04:04:42;;;;;;;33.83;20.87;;;5.30;59.60;;;;;;5064353;28;20266;-41
2020/12/03 04:07:08;;;;;;;35.20;20.60;;;5.50;59.30;;;;;;5061138;28;21213;-41
2020/12/03 04:09:33;;;;;;;34.97;18.87;;;5.80;58.70;;;;;;5059561;28;20299;-41
2020/12/03 04:11:59;;;;;;;36.23;20.17;;;6.00;58.10;;;;;;5065445;28;20230;-41
2020/12/03 04:14:24;;;;;;;32.83;18.30;;;6.00;57.60;;;;;;5062527;28;20640;-41
2020/12/03 04:16:50;;;;;;;38.83;21.40;;;6.10;57.40;;;;;;5062996;28;20275;-41
2020/12/03 04:19:15;;;;;;;37.20;18.97;;;6.30;57.00;;;;;;5061591;28;20246;-41
2020/12/03 04:21:41;;;;;;;32.10;19.30;;;6.50;56.90;;;;;;5055078;28;20204;-41
2020/12/03 04:24:06;;;;;;;35.43;20.30;;;6.60;56.40;;;;;;5055388;28;20276;-41
2020/12/03 04:26:32;;;;;;;36.23;18.83;;;6.60;56.20;;;;;;5061279;28;20192;-41
2020/12/03 04:28:57;;;;;;;33.00;19.40;;;6.70;56.10;;;;;;5064942;28;20219;-41
2020/12/03 04:31:23;;;;;;;32.73;17.87;;;6.80;56.00;;;;;;5064456;28;20196;-42
2020/12/03 04:33:49;;;;;;;38.77;22.83;;;6.80;56.00;;;;;;5062015;28;20583;-41
2020/12/03 04:36:16;;;;;;;35.90;20.60;;;6.90;56.10;;;;;;5065931;28;20206;-41
2020/12/03 04:38:41;;;;;;;38.40;20.87;;;6.90;55.90;;;;;;5068779;28;20234;-41
2020/12/03 04:41:08;;;;;;;35.27;18.97;;;7.00;55.70;;;;;;5058328;28;20817;-41
2020/12/03 04:43:48;;;;;;;33.80;18.23;;;7.00;55.40;;;;;;5066860;28;20203;-41
2020/12/03 04:46:31;;;;;;;31.83;20.13;;;7.00;55.30;;;;;;5061287;28;20473;-41
2020/12/03 04:49:25;;;;;;;35.53;19.87;;;7.10;55.10;;;;;;5063887;28;20483;-41
2020/12/03 04:52:05;;;;;;;30.57;16.80;;;7.10;55.00;;;;;;5053215;28;20446;-41
2020/12/03 04:54:53;;;;;;;35.23;19.57;;;7.10;54.90;;;;;;5058725;28;20445;-41
2020/12/03 04:57:46;;;;;;;30.27;17.57;;;7.20;54.80;;;;;;5053321;28;20465;-41
2020/12/03 05:00:40;;;;;;;32.63;18.50;;;7.20;54.80;;;;;;5054711;28;20443;-41
2020/12/03 05:03:33;;;;;;;33.53;20.23;;;7.20;55.00;;;;;;5060226;28;20545;-41
2020/12/03 05:06:13;;;;;;;38.77;19.80;;;7.20;55.20;;;;;;5057858;28;20561;-41
2020/12/03 05:08:53;;;;;;;33.87;19.30;;;7.20;55.30;;;;;;5067338;28;20502;-41
2020/12/03 05:11:30;;;;;;;32.60;20.07;;;7.20;55.40;;;;;;5060942;28;20445;-41
2020/12/03 05:14:05;;;;;;;32.37;19.57;;;7.20;55.20;;;;;;5067670;28;20452;-41
2020/12/03 05:17:15;;;;;;;33.07;20.87;;;7.20;55.10;;;;;;5066601;28;20963;-41
2020/12/03 05:19:48;;;;;;;28.63;16.70;;;7.20;55.00;;;;;;5001292;28;20452;-41
2020/12/03 05:22:20;;;;;;;29.93;19.50;;;7.20;55.10;;;;;;5051903;28;20487;-42
2020/12/03 05:24:46;;;;;;;28.70;18.47;;;7.20;55.20;;;;;;5056508;28;20443;-41
2020/12/03 05:27:20;;;;;;;35.50;19.60;;;7.30;55.30;;;;;;5057320;28;20441;-42
2020/12/03 05:29:46;;;;;;;33.47;19.10;;;7.30;55.20;;;;;;5060801;28;20277;-41
2020/12/03 05:32:12;;;;;;;35.63;20.83;;;7.30;55.10;;;;;;5064621;28;20468;-42
2020/12/03 05:34:38;;;;;;;33.77;19.90;;;7.20;54.90;;;;;;5064122;28;20438;-41
2020/12/03 05:37:09;;;;;;;35.10;18.07;;;7.10;55.10;;;;;;5064083;28;20200;-41
2020/12/03 05:39:56;;;;;;;36.60;20.30;;;7.00;55.20;;;;;;5060034;28;20655;-42
2020/12/03 05:42:29;;;;;;;35.77;19.60;;;6.70;55.50;;;;;;5063343;28;20450;-41
2020/12/03 05:44:58;;;;;;;37.00;19.23;;;6.50;56.10;;;;;;5065140;28;20457;-41
2020/12/03 05:47:28;;;;;;;34.80;18.13;;;6.50;56.30;;;;;;5066303;28;20446;-42
2020/12/03 05:50:02;;;;;;;28.33;17.37;;;6.40;56.20;;;;;;5060817;28;20575;-41
2020/12/03 05:52:28;;;;;;;34.77;19.30;;;6.50;56.50;;;;;;5060759;28;20980;-41
2020/12/03 05:55:01;;;;;;;33.77;18.53;;;6.70;56.30;;;;;;5065110;28;20450;-41
2020/12/03 05:57:36;;;;;;;35.27;19.20;;;6.60;56.40;;;;;;5061680;28;20450;-42
2020/12/03 06:00:14;;;;;;;33.83;19.00;;;6.60;56.50;;;;;;5055598;28;20442;-41
2020/12/03 06:02:42;;;;;;;34.30;20.07;;;6.10;57.10;;;;;;5060177;28;20443;-41
2020/12/03 06:05:21;;;;;;;31.20;19.83;;;6.00;57.90;;;;;;5061382;28;20450;-41
2020/12/03 06:07:59;;;;;;;36.30;20.67;;;6.00;58.10;;;;;;5062341;28;20547;-41
2020/12/03 06:10:41;;;;;;;34.03;20.10;;;6.10;58.00;;;;;;5056320;28;20975;-41
2020/12/03 06:13:14;;;;;;;32.07;18.33;;;5.90;58.60;;;;;;5059339;28;20945;-42
2020/12/03 06:15:58;;;;;;;33.00;18.03;;;6.10;61.10;;;;;;5061419;28;20468;-42
2020/12/03 06:18:44;;;;;;;33.17;18.93;;;6.60;61.10;;;;;;5054887;28;20455;-41
2020/12/03 06:21:29;;;;;;;36.10;18.20;;;6.90;60.50;;;;;;5051793;28;20447;-42
2020/12/03 06:24:16;;;;;;;34.40;20.07;;;7.30;58.60;;;;;;5064317;28;20461;-42
2020/12/03 06:27:08;;;;;;;34.27;19.80;;;7.40;57.10;;;;;;5060752;28;20481;-42
2020/12/03 06:29:48;;;;;;;31.97;17.27;;;7.60;56.30;;;;;;5051351;28;20474;-42
2020/12/03 06:32:41;;;;;;;30.60;19.00;;;7.60;56.10;;;;;;5054499;28;20533;-42
2020/12/03 06:35:39;;;;;;;29.70;16.83;;;7.90;55.80;;;;;;5059595;28;20973;-42
2020/12/03 06:38:08;;;;;;;32.37;18.77;;;8.10;54.30;;;;;;5061012;28;20606;-42
2020/12/03 06:40:38;;;;;;;30.13;17.17;;;8.20;54.30;;;;;;5069951;28;21109;-42
2020/12/03 06:43:27;;;;;;;28.73;17.30;;;8.40;54.00;;;;;;5060163;28;20477;-42
2020/12/03 06:46:04;;;;;;;36.70;21.60;;;8.50;53.50;;;;;;5061003;28;20529;-42
2020/12/03 06:48:50;;;;;;;31.63;19.07;;;8.50;53.10;;;;;;5059405;28;20446;-42
2020/12/03 06:51:43;;;;;;;28.80;17.87;;;8.50;53.50;;;;;;5062879;28;20446;-42
2020/12/03 06:54:37;;;;;;;29.80;17.73;;;8.70;53.10;;;;;;5070256;28;20550;-42
2020/12/03 06:57:14;;;;;;;24.80;16.47;;;8.70;52.50;;;;;;5065916;28;20491;-43
2020/12/03 06:59:54;;;;;;;28.37;17.10;;;8.80;52.40;;;;;;5058437;28;20489;-42
2020/12/03 07:02:46;;;;;;;28.40;17.00;;;8.70;51.40;;;;;;5060123;28;20968;-42
2020/12/03 07:05:40;;;;;;;29.93;18.03;;;8.80;52.00;;;;;;5068105;28;20442;-42
2020/12/03 07:08:29;;;;;;;27.13;17.57;;;8.90;52.10;;;;;;5033312;28;20800;-42
2020/12/03 07:11:13;;;;;;;28.77;16.60;;;9.00;51.60;;;;;;5069899;28;20486;-42
2020/12/03 07:14:13;;;;;;;24.80;16.80;;;9.00;51.40;;;;;;5069124;28;20445;-42
2020/12/03 07:17:07;;;;;;;23.23;15.00;;;9.10;51.20;;;;;;5069924;28;20442;-42
2020/12/03 07:20:02;;;;;;;25.37;16.93;;;9.10;50.30;;;;;;5071676;28;20434;-42
2020/12/03 07:22:37;;;;;;;28.07;15.43;;;9.00;51.00;;;;;;5069074;28;20945;-42
2020/12/03 07:25:04;;;;;;;27.10;16.97;;;9.00;51.20;;;;;;5068472;28;20423;-42
2020/12/03 07:27:32;;;;;;;27.40;16.10;;;9.00;50.90;;;;;;5072557;28;20426;-42
2020/12/03 07:30:06;;;;;;;26.60;16.10;;;9.00;51.00;;;;;;5069246;28;20486;-42
2020/12/03 07:32:31;;;;;;;28.93;18.27;;;9.10;51.30;;;;;;5061788;28;20484;-42
2020/12/03 07:35:20;;;;;;;29.47;17.90;;;9.10;51.30;;;;;;5071831;28;20426;-42
2020/12/03 07:38:10;;;;;;;32.30;18.00;;;9.10;51.10;;;;;;5070353;28;20694;-42
2020/12/03 07:40:36;;;;;;;30.07;18.00;;;9.00;50.70;;;;;;5067609;28;20442;-42
2020/12/03 07:43:19;;;;;;;32.17;18.40;;;9.00;51.20;;;;;;5070567;28;20781;-42
2020/12/03 07:45:49;;;;;;;26.80;15.23;;;8.90;51.40;;;;;;5071358;28;20663;-42
2020/12/03 07:48:22;;;;;;;26.03;15.23;;;9.00;51.60;;;;;;5066701;28;20529;-42
2020/12/03 07:50:50;;;;;;;24.77;15.00;;;9.10;51.30;;;;;;5058726;28;20500;-42
2020/12/03 07:53:22;;;;;;;25.37;17.43;;;9.00;51.50;;;;;;5072461;28;20511;-42
2020/12/03 07:55:48;;;;;;;25.00;15.70;;;9.10;51.80;;;;;;5070314;28;20628;-42
2020/12/03 07:58:42;;;;;;;24.00;16.10;;;9.30;51.50;;;;;;5072728;28;20996;-42
2020/12/03 08:01:27;;;;;;;23.43;14.90;;;9.40;51.20;;;;;;5070959;28;20446;-42
2020/12/03 08:03:54;;;;;;;24.27;15.67;;;9.60;51.00;;;;;;5071501;28;20517;-42
2020/12/03 08:06:28;;;;;;;21.90;14.03;;;9.70;50.60;;;;;;5071115;28;20884;-42
2020/12/03 08:09:00;;;;;;;29.20;17.00;;;9.80;50.50;;;;;;5071129;28;20441;-42
2020/12/03 08:11:36;;;;;;;22.97;15.97;;;10.00;49.50;;;;;;5067538;28;20945;-42
2020/12/03 08:14:03;;;;;;;23.90;14.73;;;10.00;48.90;;;;;;5069001;28;20441;-42
2020/12/03 08:16:39;;;;;;;23.67;15.70;;;9.70;49.40;;;;;;5064830;28;20477;-42
2020/12/03 08:19:21;;;;;;;24.57;15.80;;;9.50;50.50;;;;;;5068932;28;20441;-42
2020/12/03 08:21:48;;;;;;;24.07;15.60;;;9.70;50.60;;;;;;5065979;28;20815;-42
2020/12/03 08:24:40;;;;;;;25.63;17.20;;;9.60;50.30;;;;;;5059577;28;20472;-42
2020/12/03 08:27:26;;;;;;;24.83;14.70;;;9.30;50.20;;;;;;5066945;28;20450;-42
2020/12/03 08:29:51;;;;;;;23.50;15.13;;;9.30;50.90;;;;;;5065039;28;20539;-42
2020/12/03 08:32:17;;;;;;;20.60;14.03;;;9.50;50.80;;;;;;5069428;28;20422;-42
2020/12/03 08:34:43;;;;;;;18.90;12.37;;;9.60;50.50;;;;;;5065500;28;20218;-42
2020/12/03 08:37:18;;;;;;;22.37;14.50;;;9.60;50.20;;;;;;5069021;28;20290;-42
2020/12/03 08:39:50;;;;;;;22.70;15.60;;;9.60;50.20;;;;;;5070893;28;20441;-42
2020/12/03 08:42:16;;;;;;;22.63;14.70;;;9.60;49.90;;;;;;5070429;28;20487;-42
2020/12/03 08:44:42;;;;;;;21.10;13.43;;;9.70;50.00;;;;;;5067433;28;20434;-42
2020/12/03 08:47:19;;;;;;;18.57;13.17;;;9.80;50.00;;;;;;5070425;28;20289;-42
2020/12/03 08:49:45;;;;;;;20.27;13.87;;;9.90;49.70;;;;;;5068560;28;20528;-42
2020/12/03 08:52:16;;;;;;;20.30;13.73;;;9.90;49.30;;;;;;5063661;28;20461;-42
2020/12/03 08:54:42;;;;;;;23.40;14.73;;;9.50;49.70;;;;;;5066089;28;20215;-42
2020/12/03 08:57:15;;;;;;;23.50;14.57;;;9.30;50.10;;;;;;5070422;28;20948;-42
2020/12/03 08:59:51;;;;;;;18.63;12.63;;;8.90;51.20;;;;;;5068539;28;20295;-42
2020/12/03 09:02:19;;;;;;;15.00;12.00;;;9.10;51.60;;;;;;5070847;28;20426;-42
2020/12/03 09:04:53;;;;;;;16.00;11.73;;;9.20;50.70;;;;;;5062907;28;20529;-42
2020/12/03 09:07:22;;;;;;;18.20;12.30;;;9.10;50.50;;;;;;5061197;28;20477;-42
2020/12/03 09:09:51;;;;;;;15.03;11.30;;;9.20;50.70;;;;;;5063888;28;20969;-42
2020/12/03 09:12:23;;;;;;;15.67;11.60;;;9.10;50.30;;;;;;5059414;28;20898;-42
2020/12/03 09:14:50;;;;;;;17.80;12.40;;;9.10;50.40;;;;;;5067555;28;20521;-42
2020/12/03 09:17:18;;;;;;;16.17;12.07;;;8.90;50.50;;;;;;5067142;28;20567;-42
2020/12/03 09:19:45;;;;;;;18.97;13.00;;;8.60;50.90;;;;;;5055200;28;20838;-42
2020/12/03 09:22:13;;;;;;;19.27;13.10;;;8.50;52.20;;;;;;5058501;28;20431;-42
2020/12/03 09:24:40;;;;;;;18.70;13.07;;;8.50;51.80;;;;;;5067145;28;20427;-42
2020/12/03 09:27:08;;;;;;;21.17;13.03;;;8.60;51.90;;;;;;5067196;28;20430;-42
2020/12/03 09:29:34;;;;;;;17.10;11.93;;;8.40;51.50;;;;;;5069648;28;20538;-42
2020/12/03 09:32:04;;;;;;;15.80;11.47;;;8.30;52.00;;;;;;5059808;28;20513;-42
2020/12/03 09:34:34;;;;;;;17.10;11.80;;;8.10;51.60;;;;;;5057531;28;20446;-42
2020/12/03 09:37:02;;;;;;;16.50;11.00;;;8.10;52.10;;;;;;5062766;28;20524;-42
2020/12/03 09:39:31;;;;;;;18.57;12.47;;;7.90;52.70;;;;;;5064563;28;20876;-42
2020/12/03 09:41:57;;;;;;;18.77;13.03;;;8.00;53.20;;;;;;5068219;28;20422;-42
2020/12/03 09:44:23;;;;;;;22.60;14.50;;;8.00;53.00;;;;;;5067472;28;20438;-41
2020/12/03 09:46:52;;;;;;;18.63;12.77;;;7.90;53.30;;;;;;5060020;28;20443;-42
2020/12/03 09:49:18;;;;;;;19.87;12.20;;;8.00;53.20;;;;;;5051953;28;20845;-42
2020/12/03 09:51:46;;;;;;;17.57;11.20;;;8.00;53.00;;;;;;5065410;28;20438;-42
2020/12/03 09:54:12;;;;;;;17.30;11.83;;;8.10;52.50;;;;;;5061064;28;20450;-41
2020/12/03 09:56:38;;;;;;;19.83;12.37;;;8.20;52.70;;;;;;5055210;28;20910;-42
2020/12/03 09:59:06;;;;;;;16.70;10.63;;;8.20;52.20;;;;;;5067611;28;20434;-42
2020/12/03 10:01:57;;;;;;;15.90;10.67;;;8.20;51.90;;;;;;5066846;28;20942;-42
2020/12/03 10:05:24;;;;;;;15.00;10.13;;;8.10;51.70;;;;;;5063249;28;20438;-42
2020/12/03 10:08:29;;;;;;;18.07;11.20;;;8.20;51.70;;;;;;4979505;28;20548;-41
2020/12/03 10:11:24;;;;;;;15.10;11.87;;;8.40;51.60;;;;;;4986664;28;20575;-42
2020/12/03 10:14:27;;;;;;;17.80;11.70;;;8.30;51.80;;;;;;5049800;28;20503;-42
2020/12/03 10:17:04;;;;;;;19.37;11.60;;;8.10;52.00;;;;;;5060196;28;20488;-42
2020/12/03 10:19:35;;;;;;;16.13;12.43;;;8.10;52.40;;;;;;5061664;28;20471;-42
2020/12/03 10:22:05;;;;;;;19.27;12.67;;;8.00;52.30;;;;;;5067925;28;20450;-43
2020/12/03 10:24:44;;;;;;;17.13;12.13;;;7.70;52.70;;;;;;5068576;28;20434;-42
2020/12/03 10:27:23;;;;;;;13.47;10.10;;;7.60;52.70;;;;;;5059081;28;20434;-41
2020/12/03 10:30:00;;;;;;;19.53;11.37;;;7.50;53.40;;;;;;5060372;28;20524;-42
2020/12/03 10:32:27;;;;;;;15.77;11.17;;;7.30;53.20;;;;;;5059135;28;20444;-42
2020/12/03 10:34:54;;;;;;;16.63;11.10;;;7.40;53.30;;;;;;5067130;28;20429;-42
2020/12/03 10:37:38;;;;;;;14.80;9.70;;;7.50;52.70;;;;;;5064014;28;20427;-42
2020/12/03 10:40:16;;;;;;;15.20;10.40;;;7.70;52.60;;;;;;5069610;28;20442;-41
2020/12/03 10:43:05;;;;;;;14.80;9.97;;;7.80;51.90;;;;;;5072780;28;20490;-42
2020/12/03 10:45:35;;;;;;;15.97;11.00;;;7.90;52.10;;;;;;5060222;28;20422;-42
2020/12/03 10:48:08;;;;;;;13.73;10.43;;;7.80;51.90;;;;;;5068573;28;20433;-42
2020/12/03 10:50:55;;;;;;;15.10;10.97;;;7.40;51.80;;;;;;5070844;28;20561;-42
2020/12/03 10:53:23;;;;;;;13.20;10.20;;;7.20;52.70;;;;;;5071115;28;20446;-42
2020/12/03 10:56:03;;;;;;;14.00;10.67;;;7.00;53.50;;;;;;5063010;28;20438;-42
2020/12/03 10:58:54;;;;;;;12.87;10.33;;;7.00;53.20;;;;;;5061906;28;20529;-41
2020/12/03 11:01:27;;;;;;;13.93;9.87;;;6.90;52.90;;;;;;5061863;28;20782;-42
2020/12/03 11:03:56;;;;;;;13.23;9.60;;;7.10;53.50;;;;;;5063935;28;20430;-42
2020/12/03 11:06:27;;;;;;;16.00;10.50;;;7.20;53.20;;;;;;5064981;28;20554;-42
2020/12/03 11:08:53;;;;;;;12.97;10.00;;;7.40;53.80;;;;;;5056302;28;20469;-42
2020/12/03 11:11:21;;;;;;;14.70;9.80;;;7.60;52.40;;;;;;5068514;28;20513;-42
2020/12/03 11:13:47;;;;;;;16.80;9.50;;;7.90;51.90;;;;;;5069916;28;20533;-42
2020/12/03 11:16:15;;;;;;;12.43;9.27;;;8.00;51.00;;;;;;5064671;28;20871;-42
2020/12/03 11:18:52;;;;;;;13.33;9.73;;;8.20;51.10;;;;;;5059774;28;20189;-42
2020/12/03 11:21:23;;;;;;;14.20;8.90;;;8.40;50.60;;;;;;5066758;28;20529;-42
2020/12/03 11:24:09;;;;;;;11.00;8.50;;;8.60;50.20;;;;;;5069130;28;20442;-42
2020/12/03 11:26:39;;;;;;;13.13;7.90;;;8.80;49.10;;;;;;5057086;28;20952;-42
2020/12/03 11:29:12;;;;;;;9.47;8.17;;;8.90;48.40;;;;;;5057092;28;20431;-42
2020/12/03 11:31:38;;;;;;;11.50;8.57;;;8.90;48.30;;;;;;5058112;28;20529;-42
2020/12/03 11:34:04;;;;;;;9.63;8.47;;;9.00;47.80;;;;;;5066112;28;20447;-42
2020/12/03 11:36:39;;;;;;;9.20;7.57;;;8.90;47.90;;;;;;5074021;28;20447;-42
2020/12/03 11:39:09;;;;;;;10.43;7.97;;;8.90;47.50;;;;;;5062996;28;20486;-42
2020/12/03 11:49:07;;;;;;;9.80;7.50;;;9.10;46.70;;;;;;5068597;28;20437;-42
2020/12/03 11:51:36;;;;;;;8.80;7.67;;;9.10;47.00;;;;;;5060888;28;20542;-42
2020/12/03 11:54:07;;;;;;;11.93;7.77;;;9.10;46.90;;;;;;5064863;28;20580;-42
2020/12/03 11:56:35;;;;;;;12.57;8.57;;;9.10;47.00;;;;;;5060248;28;20446;-42
2020/12/03 11:59:16;;;;;;;12.30;7.80;;;9.10;47.20;;;;;;5071165;28;20442;-42
2020/12/03 12:02:11;;;;;;;9.00;7.73;;;9.00;47.20;;;;;;5054991;28;20504;-42
2020/12/03 12:04:53;;;;;;;8.50;7.47;;;8.90;47.20;;;;;;5050027;28;20446;-42
2020/12/03 12:09:50;;;;;;;8.07;6.20;;;9.10;47.60;;;;;;5064129;28;20888;-44
2020/12/03 12:12:18;;;;;;;9.33;7.70;;;9.20;47.20;;;;;;5070826;28;20207;-42
2020/12/03 12:14:44;;;;;;;8.17;6.30;;;9.20;46.60;;;;;;5061625;28;20492;-42
2020/12/03 12:17:10;;;;;;;9.23;7.20;;;9.20;46.50;;;;;;5060911;28;20441;-42
2020/12/03 12:19:37;;;;;;;8.00;6.00;;;9.30;46.70;;;;;;5066604;28;20537;-42
2020/12/03 12:22:04;;;;;;;8.30;6.73;;;8.80;46.30;;;;;;5059663;28;20203;-42
2020/12/03 12:24:30;;;;;;;8.27;5.70;;;8.60;47.00;;;;;;5069736;28;20933;-42
2020/12/03 12:26:56;;;;;;;9.67;6.60;;;8.30;47.40;;;;;;5064527;28;20431;-41
2020/12/03 12:29:21;;;;;;;7.30;6.20;;;8.50;48.00;;;;;;5069527;28;20474;-42
2020/12/03 12:31:47;;;;;;;6.10;5.30;;;8.50;47.80;;;;;;5056071;28;20199;-42
2020/12/03 12:34:12;;;;;;;6.37;5.60;;;8.20;47.40;;;;;;5054291;28;20197;-42
2020/12/03 12:36:38;;;;;;;6.90;5.60;;;8.50;47.80;;;;;;5063797;28;20771;-42
2020/12/03 12:39:04;;;;;;;8.07;5.47;;;8.50;47.40;;;;;;5068415;28;20290;-42
2020/12/03 12:41:30;;;;;;;8.73;6.43;;;8.60;47.30;;;;;;5062803;28;20184;-42
2020/12/03 12:43:56;;;;;;;7.67;6.17;;;8.70;47.60;;;;;;5065977;28;20796;-42
2020/12/03 12:46:25;;;;;;;10.30;5.33;;;8.80;46.70;;;;;;5066653;28;20434;-42
2020/12/03 12:48:51;;;;;;;8.77;6.13;;;8.70;49.20;;;;;;5063873;28;20195;-42
2020/12/03 12:51:18;;;;;;;6.97;5.67;;;8.60;48.70;;;;;;5069020;28;20450;-42
2020/12/03 12:53:44;;;;;;;6.63;5.40;;;8.90;48.60;;;;;;5061537;28;20525;-42
2020/12/03 12:56:10;;;;;;;9.10;5.90;;;9.10;48.20;;;;;;5062977;28;21070;-42
2020/12/03 12:58:36;;;;;;;7.13;5.77;;;9.00;47.50;;;;;;5066884;28;20207;-43
2020/12/03 13:01:03;;;;;;;6.43;5.13;;;9.00;47.20;;;;;;5068410;28;20798;-42
2020/12/03 13:03:28;;;;;;;6.80;5.53;;;8.80;47.80;;;;;;5070297;28;20921;-42
2020/12/03 13:05:54;;;;;;;7.00;5.50;;;9.00;47.90;;;;;;5069991;28;20587;-42
2020/12/03 13:08:20;;;;;;;7.30;5.30;;;9.40;47.60;;;;;;5064600;28;20551;-42
2020/12/03 13:10:45;;;;;;;9.00;6.47;;;9.80;47.10;;;;;;5067861;28;20231;-42
2020/12/03 13:13:11;;;;;;;7.17;5.33;;;9.30;45.80;;;;;;5061428;28;20188;-42
2020/12/03 13:15:37;;;;;;;7.80;6.20;;;9.20;46.90;;;;;;5068761;28;20651;-42